Time;durP1;ratioP1;P1;durP2;ratioP2;P2;SDS_P1;SDS_P2;PMS_P1;PMS_P2;Temp;Humidity;BMP_temperature;BMP_pressure;BME280_temperature;BME280_humidity;BME280_pressure;Samples;Min_cycle;Max_cycle;Signal;HPM_P1;HPM_P2
2021/12/04 00:02:12;;;;;;;13.05;6.25;;;;;;;2.92;77.44;99826.25;5027426;28;20049;-66
2021/12/04 00:04:41;;;;;;;6.00;5.00;;;;;;;2.91;77.39;99828.91;5021427;28;20066;-66
2021/12/04 00:07:09;;;;;;;16.17;5.95;;;;;;;2.93;77.48;99821.91;5025057;28;20049;-66
2021/12/04 00:09:37;;;;;;;11.05;5.47;;;;;;;3.06;77.30;99824.94;5026145;28;20067;-66
2021/12/04 00:12:06;;;;;;;7.43;5.85;;;;;;;2.93;77.79;99825.34;5026995;28;20424;-66
2021/12/04 00:14:35;;;;;;;11.00;6.30;;;;;;;2.99;77.75;99826.06;5027277;28;20142;-66
2021/12/04 00:17:04;;;;;;;11.65;6.13;;;;;;;3.12;77.48;99822.13;5027204;28;20057;-66
2021/12/04 00:19:31;;;;;;;8.70;5.05;;;;;;;3.25;76.83;99821.59;5025229;28;20049;-66
2021/12/04 00:21:58;;;;;;;13.30;6.43;;;;;;;3.12;76.96;99819.53;5011594;28;20104;-67
2021/12/04 00:24:25;;;;;;;10.57;6.22;;;;;;;3.09;78.11;99817.03;5006878;28;20069;-67
2021/12/04 00:26:54;;;;;;;12.40;6.35;;;;;;;3.13;77.45;99827.25;5007168;28;20147;-67
2021/12/04 00:29:21;;;;;;;10.40;5.95;;;;;;;2.89;78.09;99812.56;5008230;28;20490;-69
2021/12/04 00:31:49;;;;;;;9.55;6.45;;;;;;;2.94;77.75;99818.44;5027029;28;20052;-68
2021/12/04 00:34:19;;;;;;;9.88;6.30;;;;;;;3.05;77.90;99802.53;5029253;28;20052;-67
2021/12/04 00:37:03;;;;;;;19.60;7.63;;;;;;;3.17;76.97;99802.09;5028564;28;20048;-67
2021/12/04 00:50:26;;;;;;;14.57;6.80;;;;;;;3.08;77.22;99797.22;5009418;28;20461;-68
2021/12/04 00:52:54;;;;;;;10.98;6.57;;;;;;;3.20;76.97;99797.63;5009303;28;20486;-68
2021/12/04 00:55:20;;;;;;;9.93;6.68;;;;;;;3.20;76.99;99792.44;5006180;28;20111;-68
2021/12/04 00:57:47;;;;;;;15.00;6.72;;;;;;;3.11;78.08;99781.56;5008203;28;20708;-68
2021/12/04 01:00:14;;;;;;;11.75;6.60;;;;;;;3.26;77.42;99786.19;5026132;28;20190;-68
2021/12/04 01:02:43;;;;;;;12.50;6.65;;;;;;;3.25;76.88;99779.34;5028766;28;20068;-68
2021/12/04 01:05:09;;;;;;;10.60;6.28;;;;;;;3.43;76.49;99781.25;5015387;28;20049;-68
2021/12/04 01:07:37;;;;;;;11.35;7.00;;;;;;;3.32;76.66;99780.78;5009242;28;20104;-68
2021/12/04 01:10:05;;;;;;;8.88;6.78;;;;;;;3.36;76.60;99779.78;5008665;28;20119;-68
2021/12/04 01:12:31;;;;;;;11.18;7.53;;;;;;;3.35;76.76;99788.44;5025593;28;20081;-68
2021/12/04 01:14:57;;;;;;;12.07;6.95;;;;;;;3.20;77.85;99782.09;5021551;28;20057;-68
2021/12/04 01:17:24;;;;;;;15.18;6.90;;;;;;;3.28;77.40;99780.06;5008859;28;20490;-68
2021/12/04 01:19:50;;;;;;;11.80;7.35;;;;;;;3.34;77.41;99786.75;5008691;28;20050;-68
2021/12/04 01:22:19;;;;;;;11.70;6.68;;;;;;;3.38;77.33;99781.41;5009477;28;20104;-68
2021/12/04 01:24:47;;;;;;;9.85;7.13;;;;;;;3.30;77.58;99773.06;5009201;28;20041;-68
2021/12/04 01:27:14;;;;;;;11.68;7.28;;;;;;;3.48;77.02;99776.69;5008699;28;20046;-68
2021/12/04 01:29:40;;;;;;;11.48;7.10;;;;;;;3.50;76.62;99774.06;5008743;28;20045;-68
2021/12/04 01:32:09;;;;;;;10.52;7.32;;;;;;;3.56;76.66;99769.50;5009283;28;20115;-68
2021/12/04 01:34:35;;;;;;;8.48;7.20;;;;;;;3.36;77.02;99759.06;5009128;28;20481;-68
2021/12/04 01:37:03;;;;;;;10.07;6.30;;;;;;;3.40;77.62;99763.19;5008676;28;20050;-68
2021/12/04 01:39:29;;;;;;;11.13;7.32;;;;;;;3.61;77.05;99771.91;5009391;28;20076;-68
2021/12/04 01:41:57;;;;;;;12.15;7.30;;;;;;;3.44;77.10;99767.34;5008940;28;20050;-68
2021/12/04 01:44:23;;;;;;;9.63;6.95;;;;;;;3.33;77.82;99756.56;5008558;28;20046;-68
2021/12/04 01:46:55;;;;;;;11.60;7.55;;;;;;;3.33;77.96;99753.97;5008700;28;20066;-66
2021/12/04 01:49:22;;;;;;;10.75;8.02;;;;;;;3.15;78.71;99765.00;5008983;28;20080;-67
2021/12/04 01:51:48;;;;;;;9.65;7.40;;;;;;;3.26;78.34;99760.28;5010948;28;20101;-67
2021/12/04 01:54:14;;;;;;;13.32;7.35;;;;;;;3.41;77.77;99764.88;5012663;28;20049;-68
2021/12/04 01:56:41;;;;;;;11.57;8.13;;;;;;;3.34;77.81;99759.09;5010300;28;20116;-69
2021/12/04 01:59:09;;;;;;;16.25;7.35;;;;;;;3.39;78.23;99756.34;4999871;28;20049;-69
2021/12/04 02:01:35;;;;;;;13.20;7.57;;;;;;;3.38;77.60;99757.22;5012688;28;20042;-69
2021/12/04 02:04:02;;;;;;;13.70;7.18;;;;;;;3.38;77.70;99752.91;5012294;28;20104;-69
2021/12/04 02:06:28;;;;;;;11.23;8.55;;;;;;;3.64;76.85;99749.31;5013081;28;20101;-69
2021/12/04 02:08:54;;;;;;;11.63;8.18;;;;;;;3.21;78.14;99738.91;5012330;28;20065;-69
2021/12/04 02:11:21;;;;;;;14.70;8.40;;;;;;;3.38;78.26;99747.72;4998899;28;20565;-69
2021/12/04 02:13:47;;;;;;;13.65;8.25;;;;;;;3.35;77.80;99740.06;4996704;28;20124;-70
2021/12/04 02:16:20;;;;;;;14.35;8.13;;;;;;;3.50;77.11;99749.00;4993238;28;20070;-70
2021/12/04 02:18:47;;;;;;;11.57;7.20;;;;;;;3.41;77.82;99746.75;5004071;28;20081;-70
2021/12/04 02:21:15;;;;;;;13.73;7.15;;;;;;;3.37;77.57;99753.78;5012312;28;20045;-70
2021/12/04 02:23:41;;;;;;;13.80;7.97;;;;;;;3.38;77.93;99749.47;5012008;28;20049;-70
2021/12/04 02:26:08;;;;;;;11.70;8.02;;;;;;;3.45;77.66;99753.50;5012058;28;20457;-69
2021/12/04 02:28:35;;;;;;;11.93;8.30;;;;;;;3.57;77.19;99747.84;5011639;28;20119;-69
2021/12/04 02:31:02;;;;;;;12.65;7.97;;;;;;;3.44;77.91;99739.69;5012262;28;20104;-70
2021/12/04 02:33:28;;;;;;;12.75;7.55;;;;;;;3.48;77.48;99742.16;5012495;28;20050;-70
2021/12/04 02:35:57;;;;;;;13.45;8.10;;;;;;;3.70;77.06;99738.69;5012051;28;20129;-70
2021/12/04 02:38:26;;;;;;;13.93;8.50;;;;;;;3.46;77.15;99744.84;5011287;28;20096;-70
2021/12/04 02:40:54;;;;;;;12.90;7.70;;;;;;;3.39;77.80;99736.47;4992638;28;20046;-70
2021/12/04 02:43:20;;;;;;;14.27;7.93;;;;;;;3.26;78.13;99737.81;4993668;28;20050;-71
2021/12/04 02:45:46;;;;;;;11.80;7.80;;;;;;;3.41;78.21;99734.63;5010560;28;20042;-71
2021/12/04 02:48:13;;;;;;;11.63;8.15;;;;;;;3.58;77.73;99728.81;5007984;28;20046;-71
2021/12/04 02:50:41;;;;;;;14.68;8.38;;;;;;;3.28;78.40;99723.06;5011561;28;20564;-71
2021/12/04 02:53:07;;;;;;;14.75;8.13;;;;;;;3.33;78.99;99725.47;5011859;28;20073;-71
2021/12/04 02:55:36;;;;;;;15.15;9.00;;;;;;;3.25;79.25;99717.16;5011320;28;20049;-71
2021/12/04 02:58:02;;;;;;;14.75;8.82;;;;;;;3.43;79.28;99711.28;5006513;28;20054;-71
2021/12/04 03:00:29;;;;;;;15.75;7.72;;;;;;;3.62;78.44;99701.84;5011303;28;20045;-71
2021/12/04 03:02:56;;;;;;;19.88;9.95;;;;;;;3.75;77.98;99697.88;5010743;28;20491;-71
2021/12/04 03:05:24;;;;;;;14.93;8.65;;;;;;;3.69;78.15;99699.88;5011374;28;20100;-71
2021/12/04 03:07:51;;;;;;;15.25;9.10;;;;;;;3.47;79.11;99684.34;5011017;28;20453;-71
2021/12/04 03:10:18;;;;;;;16.80;9.43;;;;;;;3.57;78.66;99677.88;5011443;28;20525;-71
2021/12/04 03:12:45;;;;;;;17.77;9.38;;;;;;;3.61;78.71;99678.59;5011125;28;20115;-71
2021/12/04 03:15:12;;;;;;;16.38;9.50;;;;;;;3.34;79.91;99672.75;5011721;28;20509;-70
2021/12/04 03:17:39;;;;;;;13.52;9.52;;;;;;;3.24;80.17;99666.25;5010510;28;20057;-70
2021/12/04 03:20:06;;;;;;;16.92;9.13;;;;;;;2.97;81.27;99662.13;5026821;28;20107;-70
2021/12/04 03:22:33;;;;;;;15.93;9.30;;;;;;;2.97;81.16;99664.69;5031031;28;20541;-70
2021/12/04 03:25:00;;;;;;;19.90;9.93;;;;;;;3.01;81.78;99667.13;5029470;28;20061;-70
2021/12/04 03:27:29;;;;;;;16.35;9.27;;;;;;;3.00;81.34;99669.75;5024579;28;20049;-70
2021/12/04 03:29:58;;;;;;;16.40;8.95;;;;;;;3.05;81.44;99662.66;5042698;28;20489;-70
2021/12/04 03:32:55;;;;;;;18.38;9.52;;;;;;;3.30;81.03;99655.63;5029856;28;20049;-70
2021/12/04 03:40:01;;;;;;;16.67;9.13;;;;;;;3.50;79.38;99647.94;5029384;28;20037;-70
2021/12/04 03:40:59;;;;;;;15.98;9.68;;;;;;;3.28;80.52;99649.69;5017719;28;20524;-70
2021/12/04 03:43:25;;;;;;;18.00;9.27;;;;;;;3.43;80.15;99660.28;5030096;28;20042;-70
2021/12/04 03:45:58;;;;;;;16.42;10.38;;;;;;;3.69;79.39;99642.84;5030360;28;20091;-69
2021/12/04 03:51:21;;;;;;;19.25;10.98;;;;;;;3.39;80.50;99643.19;4967896;28;20051;-69
2021/12/04 03:53:48;;;;;;;18.92;11.15;;;;;;;3.21;80.89;99646.50;5000001;28;20050;-69
2021/12/04 03:56:19;;;;;;;16.38;10.48;;;;;;;3.13;82.09;99639.91;5010418;28;20450;-69
2021/12/04 03:58:45;;;;;;;18.63;11.35;;;;;;;3.42;80.93;99635.28;5010207;28;20057;-69
2021/12/04 04:01:13;;;;;;;19.05;11.40;;;;;;;3.42;80.38;99637.03;5007645;28;20054;-70
2021/12/04 04:03:39;;;;;;;22.17;11.10;;;;;;;3.39;80.92;99627.63;5017865;28;20614;-70
2021/12/04 04:06:06;;;;;;;21.33;11.93;;;;;;;3.54;80.71;99636.53;5029867;28;20053;-70
2021/12/04 04:08:32;;;;;;;23.20;12.93;;;;;;;3.12;82.10;99636.47;5030063;28;20439;-71
2021/12/04 04:10:59;;;;;;;22.23;12.93;;;;;;;3.33;81.80;99638.22;5030432;28;20509;-72
2021/12/04 04:13:26;;;;;;;25.35;12.50;;;;;;;3.21;81.51;99635.28;5024422;28;20095;-72
2021/12/04 04:15:52;;;;;;;24.90;14.25;;;;;;;2.96;82.88;99639.72;5005215;28;20104;-72
2021/12/04 04:18:20;;;;;;;23.15;13.90;;;;;;;2.77;84.26;99635.22;5009429;28;20053;-72
2021/12/04 04:20:46;;;;;;;27.83;14.30;;;;;;;2.89;83.95;99628.75;5009636;28;20053;-72
2021/12/04 04:23:13;;;;;;;26.35;13.95;;;;;;;2.42;85.65;99628.78;5010003;28;20088;-72
2021/12/04 04:25:39;;;;;;;25.30;14.43;;;;;;;2.94;84.43;99625.09;5026482;28;20050;-72
2021/12/04 04:28:06;;;;;;;28.27;13.50;;;;;;;2.92;83.35;99629.47;5029478;28;20103;-72
2021/12/04 04:30:32;;;;;;;27.75;15.13;;;;;;;2.71;84.55;99627.69;5029545;28;20045;-73
2021/12/04 04:33:00;;;;;;;28.88;13.45;;;;;;;2.69;84.63;99624.34;5029585;28;20060;-73
2021/12/04 04:35:28;;;;;;;27.15;14.32;;;;;;;2.70;84.93;99623.41;5028933;28;20057;-73
2021/12/04 04:38:02;;;;;;;30.05;15.10;;;;;;;2.76;84.77;99625.78;5029040;28;20060;-72
2021/12/04 04:57:25;;;;;;;33.28;16.58;;;;;;;2.86;84.61;99628.88;5029348;28;20517;-72
2021/12/04 05:00:13;;;;;;;27.30;13.13;;;;;;;2.94;84.11;99617.31;5029115;28;20076;-71
2021/12/04 05:11:05;;;;;;;29.13;13.50;;;;;;;2.72;84.63;99607.84;5028517;28;20051;-71
2021/12/04 05:13:31;;;;;;;25.48;12.02;;;;;;;3.21;82.95;99604.22;5029232;28;20415;-70
2021/12/04 05:15:59;;;;;;;31.33;12.57;;;;;;;3.38;81.96;99612.13;5028924;28;20053;-70
2021/12/04 05:18:36;;;;;;;28.35;13.77;;;;;;;3.78;80.44;99614.78;5028554;28;20056;-70
2021/12/04 05:21:05;;;;;;;27.63;12.80;;;;;;;3.51;81.66;99615.91;5020943;28;20128;-70
2021/12/04 05:23:34;;;;;;;22.25;12.13;;;;;;;3.14;82.34;99626.06;5029090;28;20042;-70
2021/12/04 05:26:01;;;;;;;23.63;12.38;;;;;;;3.31;82.12;99613.28;5024722;28;20042;-70
2021/12/04 05:28:27;;;;;;;20.98;12.20;;;;;;;3.28;82.07;99614.25;5012090;28;20099;-70
2021/12/04 05:30:54;;;;;;;24.65;12.60;;;;;;;3.46;81.42;99617.84;5028849;28;20053;-70
2021/12/04 05:33:20;;;;;;;29.13;13.57;;;;;;;3.23;82.12;99612.75;5028400;28;20567;-70
2021/12/04 05:35:48;;;;;;;26.23;12.65;;;;;;;2.99;83.29;99600.78;5026567;28;20045;-70
2021/12/04 05:38:15;;;;;;;23.55;12.38;;;;;;;2.51;85.39;99612.09;5016727;28;20041;-69
2021/12/04 05:40:43;;;;;;;25.13;12.30;;;;;;;2.70;84.50;99614.81;5008934;28;20494;-70
2021/12/04 05:43:09;;;;;;;19.98;11.02;;;;;;;2.65;84.27;99620.19;5009178;28;20046;-69
2021/12/04 05:45:38;;;;;;;22.95;12.60;;;;;;;2.77;84.14;99611.94;5009024;28;20438;-69
2021/12/04 05:48:08;;;;;;;22.58;13.23;;;;;;;2.95;83.56;99607.81;5008464;28;20054;-70
2021/12/04 05:53:21;;;;;;;21.08;11.85;;;;;;;2.89;83.68;99616.66;5008017;28;20176;-69
2021/12/04 05:55:53;;;;;;;23.83;11.93;;;;;;;3.07;82.73;99609.09;5003882;28;20073;-69
2021/12/04 05:58:22;;;;;;;24.85;10.77;;;;;;;3.24;81.84;99604.91;5008364;28;20054;-69
2021/12/04 06:00:48;;;;;;;25.23;11.75;;;;;;;3.24;82.42;99614.44;5022100;28;20054;-70
2021/12/04 06:03:15;;;;;;;21.02;11.95;;;;;;;2.96;83.00;99611.25;5008914;28;20046;-70
2021/12/04 06:05:41;;;;;;;24.13;12.23;;;;;;;3.05;83.21;99609.13;5011198;28;20072;-70
2021/12/04 06:08:08;;;;;;;21.98;10.88;;;;;;;2.64;84.22;99608.13;5007694;28;20065;-71
2021/12/04 06:10:34;;;;;;;29.90;12.20;;;;;;;2.84;83.91;99599.63;5024880;28;20046;-71
2021/12/04 06:13:02;;;;;;;22.77;11.77;;;;;;;2.67;84.49;99600.25;5025383;28;20054;-71
2021/12/04 06:15:28;;;;;;;24.67;13.13;;;;;;;2.78;84.24;99602.41;5020948;28;20096;-71
2021/12/04 06:17:55;;;;;;;20.63;12.02;;;;;;;2.64;85.03;99589.16;5021633;28;20114;-71
2021/12/04 06:23:06;;;;;;;23.08;11.70;;;;;;;2.79;84.61;99584.25;5027572;28;20056;-71
2021/12/04 06:25:33;;;;;;;23.10;11.95;;;;;;;3.17;82.91;99587.94;5027971;28;20433;-71
2021/12/04 06:27:59;;;;;;;25.70;12.07;;;;;;;3.56;81.38;99585.47;5027520;28;20489;-71
2021/12/04 06:30:27;;;;;;;25.75;11.90;;;;;;;3.31;82.01;99585.63;5027979;28;20041;-70
2021/12/04 06:32:54;;;;;;;21.08;12.27;;;;;;;3.12;82.66;99587.28;5028438;28;20494;-70
2021/12/04 06:35:22;;;;;;;22.08;12.63;;;;;;;2.78;84.46;99592.91;5027519;28;20099;-70
2021/12/04 06:37:50;;;;;;;21.13;12.82;;;;;;;2.73;84.82;99581.06;5029021;28;20482;-70
2021/12/04 06:40:18;;;;;;;25.00;12.35;;;;;;;2.93;83.88;99589.72;5030623;28;20133;-70
2021/12/04 06:42:46;;;;;;;21.45;11.98;;;;;;;3.16;83.16;99581.06;5031740;28;20132;-70
2021/12/04 06:45:13;;;;;;;19.25;11.20;;;;;;;3.08;82.77;99585.69;5031676;28;20103;-70
2021/12/04 06:47:47;;;;;;;19.15;11.38;;;;;;;3.13;82.55;99582.94;5030767;28;20053;-69
2021/12/04 06:50:18;;;;;;;21.33;11.82;;;;;;;3.17;83.00;99582.75;5028487;28;20045;-69
2021/12/04 06:52:47;;;;;;;21.15;11.52;;;;;;;3.04;82.75;99585.88;5031051;28;20041;-69
2021/12/04 06:55:15;;;;;;;20.98;12.57;;;;;;;2.86;83.77;99580.53;5030833;28;20048;-69
2021/12/04 06:57:43;;;;;;;19.33;10.38;;;;;;;2.74;84.85;99586.16;5027489;28;20046;-69
2021/12/04 07:00:12;;;;;;;29.88;12.65;;;;;;;2.31;86.10;99586.09;5031358;28;20049;-70
2021/12/04 07:02:40;;;;;;;22.50;13.02;;;;;;;2.46;85.92;99588.09;5031604;28;20049;-71
2021/12/04 07:05:07;;;;;;;28.05;14.95;;;;;;;2.80;84.32;99595.47;5031146;28;20049;-71
2021/12/04 07:07:34;;;;;;;23.67;13.13;;;;;;;2.71;84.37;99591.47;5032501;28;20411;-72
2021/12/04 07:10:00;;;;;;;30.15;13.40;;;;;;;2.50;85.40;99600.03;5031300;28;20498;-72
2021/12/04 07:12:26;;;;;;;27.02;14.77;;;;;;;2.71;85.01;99606.16;5031313;28;20041;-71
2021/12/04 07:14:53;;;;;;;24.15;13.00;;;;;;;2.55;85.04;99600.69;5030813;28;20707;-71
2021/12/04 07:17:19;;;;;;;30.17;15.25;;;;;;;2.65;85.74;99609.81;5030974;28;20053;-71
2021/12/04 07:19:47;;;;;;;25.48;12.40;;;;;;;2.34;85.95;99602.34;5030720;28;20050;-71
2021/12/04 07:22:13;;;;;;;28.83;13.93;;;;;;;2.34;86.49;99607.50;5031122;28;20194;-71
2021/12/04 07:24:39;;;;;;;29.58;14.80;;;;;;;2.52;85.88;99610.31;5030678;28;20038;-71
2021/12/04 07:27:06;;;;;;;33.63;13.98;;;;;;;2.51;85.35;99612.09;5030631;28;20114;-70
2021/12/04 07:29:33;;;;;;;27.25;13.43;;;;;;;2.64;84.68;99609.88;5030365;28;20046;-70
2021/12/04 07:31:59;;;;;;;30.23;15.15;;;;;;;2.98;83.93;99605.09;5031046;28;20054;-70
2021/12/04 07:34:25;;;;;;;33.45;14.25;;;;;;;3.17;83.15;99606.06;5030365;28;20553;-70
2021/12/04 07:36:53;;;;;;;30.88;15.05;;;;;;;2.62;84.95;99609.94;5030028;28;20093;-70
2021/12/04 07:39:19;;;;;;;31.58;15.02;;;;;;;2.75;84.59;99593.03;5030137;28;20054;-70
2021/12/04 07:41:46;;;;;;;30.05;14.93;;;;;;;2.70;84.33;99597.53;5030594;28;20075;-69
2021/12/04 07:44:12;;;;;;;29.88;14.70;;;;;;;2.58;85.65;99592.84;5029868;28;20061;-69
2021/12/04 07:46:40;;;;;;;32.35;14.95;;;;;;;2.75;84.67;99594.78;5029643;28;20486;-69
2021/12/04 07:49:08;;;;;;;28.88;14.57;;;;;;;2.70;84.65;99589.75;5029954;28;20049;-69
2021/12/04 07:51:34;;;;;;;34.65;16.85;;;;;;;2.59;84.79;99604.03;5030870;28;20092;-69
2021/12/04 07:54:02;;;;;;;29.25;14.32;;;;;;;2.59;84.99;99597.09;5030415;28;20073;-69
2021/12/04 07:56:28;;;;;;;31.15;15.13;;;;;;;2.63;84.84;99608.16;5029243;28;20138;-69
2021/12/04 07:58:55;;;;;;;38.80;16.23;;;;;;;2.47;85.90;99604.47;5019740;28;20552;-69
2021/12/04 08:01:22;;;;;;;32.03;15.95;;;;;;;2.34;85.93;99606.66;5030058;28;20045;-69
2021/12/04 08:03:48;;;;;;;32.80;15.85;;;;;;;2.55;85.92;99605.88;5030080;28;20053;-69
2021/12/04 08:06:15;;;;;;;31.92;15.95;;;;;;;2.90;84.54;99615.75;5030184;28;20041;-67
2021/12/04 08:08:41;;;;;;;31.17;14.80;;;;;;;2.39;86.37;99602.16;5029428;28;20049;-69
2021/12/04 08:11:09;;;;;;;34.70;16.67;;;;;;;2.73;84.92;99610.38;5026942;28;20563;-69
2021/12/04 08:13:35;;;;;;;34.75;16.48;;;;;;;2.91;84.51;99609.69;5029641;28;20037;-69
2021/12/04 08:16:02;;;;;;;29.27;14.52;;;;;;;2.73;84.55;99607.78;5028782;28;20045;-69
2021/12/04 08:18:28;;;;;;;35.42;17.02;;;;;;;2.57;85.72;99611.84;5029515;28;20115;-69
2021/12/04 08:20:54;;;;;;;35.00;16.20;;;;;;;2.72;85.59;99608.69;5027412;28;20132;-69
2021/12/04 08:23:21;;;;;;;32.75;15.00;;;;;;;2.57;85.14;99606.66;5030129;28;20061;-69
2021/12/04 08:25:48;;;;;;;31.13;16.23;;;;;;;2.78;84.72;99602.41;5028966;28;20725;-69
2021/12/04 08:28:16;;;;;;;32.00;16.20;;;;;;;3.06;84.13;99607.41;5029522;28;20053;-69
2021/12/04 08:30:43;;;;;;;27.95;15.93;;;;;;;3.11;83.27;99595.09;5029088;28;20065;-69
2021/12/04 08:33:11;;;;;;;34.42;16.38;;;;;;;2.88;84.18;99608.94;5029579;28;20501;-67
2021/12/04 08:35:39;;;;;;;32.30;14.63;;;;;;;3.38;82.45;99601.78;5028853;28;20046;-67
2021/12/04 08:38:07;;;;;;;34.63;16.15;;;;;;;3.79;80.94;99603.50;5029168;28;20153;-66
2021/12/04 08:40:34;;;;;;;25.98;14.02;;;;;;;3.53;81.53;99610.66;5030150;28;20421;-67
2021/12/04 08:43:00;;;;;;;28.50;14.57;;;;;;;3.56;80.78;99611.38;5029764;28;20480;-66
2021/12/04 08:45:28;;;;;;;26.70;13.65;;;;;;;3.31;82.17;99608.09;5029030;28;20049;-67
2021/12/04 08:47:55;;;;;;;29.17;15.00;;;;;;;3.43;82.09;99615.41;5029311;28;20087;-67
2021/12/04 08:50:25;;;;;;;23.50;13.07;;;;;;;3.34;82.17;99600.19;5029300;28;20045;-67
2021/12/04 08:52:51;;;;;;;24.15;13.48;;;;;;;3.43;82.34;99602.44;5028112;28;20493;-67
2021/12/04 08:55:18;;;;;;;26.55;13.27;;;;;;;3.55;81.64;99607.09;5029083;28;20555;-67
2021/12/04 08:57:45;;;;;;;24.20;13.45;;;;;;;3.85;80.93;99600.63;5028710;28;20123;-66
2021/12/04 09:00:15;;;;;;;23.40;13.23;;;;;;;4.10;78.83;99603.00;5028047;28;20049;-66
2021/12/04 09:02:44;;;;;;;25.77;12.70;;;;;;;4.13;78.87;99604.66;5021888;28;20045;-64
2021/12/04 09:05:15;;;;;;;26.63;13.05;;;;;;;4.33;78.76;99610.66;5014147;28;20368;-66
2021/12/04 09:07:42;;;;;;;22.10;11.45;;;;;;;4.14;78.61;99608.94;5009289;28;20465;-65
2021/12/04 09:10:10;;;;;;;26.05;12.45;;;;;;;3.84;80.37;99608.50;5024779;28;20077;-65
2021/12/04 09:12:38;;;;;;;23.80;13.00;;;;;;;3.73;80.46;99613.28;5027968;28;20095;-64
2021/12/04 09:15:10;;;;;;;21.52;12.35;;;;;;;3.54;81.63;99600.25;5029424;28;20516;-64
2021/12/04 09:17:36;;;;;;;25.02;13.43;;;;;;;4.14;80.17;99601.97;5025905;28;20068;-64
2021/12/04 09:20:07;;;;;;;25.48;13.65;;;;;;;4.26;79.20;99598.00;5028936;28;20069;-65
2021/12/04 09:22:35;;;;;;;25.40;11.35;;;;;;;3.89;79.59;99593.56;5008762;28;20636;-64
2021/12/04 09:25:09;;;;;;;23.23;12.40;;;;;;;4.18;79.15;99597.50;5008986;28;20046;-64
2021/12/04 09:27:44;;;;;;;22.48;12.32;;;;;;;4.10;80.10;99605.63;5008282;28;20096;-64
2021/12/04 09:30:26;;;;;;;24.50;12.52;;;;;;;4.09;79.67;99597.91;5008959;28;20050;-64
2021/12/04 09:36:14;;;;;;;24.77;14.18;;;;;;;4.04;79.78;99589.47;4985772;28;20054;-64
2021/12/04 10:00:49;;;;;;;22.33;11.90;;;;;;;3.95;80.88;99579.50;5027164;28;20071;-64
2021/12/04 10:03:36;;;;;;;21.13;12.48;;;;;;;4.01;79.88;99571.47;5007452;28;20042;-64
2021/12/04 10:15:29;;;;;;;25.38;13.32;;;;;;;3.44;82.25;99578.19;4969699;28;20125;-65
2021/12/04 10:20:56;;;;;;;21.50;11.93;;;;;;;3.73;80.31;99564.84;5031091;28;20051;-65
2021/12/04 10:34:26;;;;;;;20.33;11.40;;;;;;;4.17;79.17;99523.19;5029252;28;20137;-65
2021/12/04 10:36:53;;;;;;;26.00;11.88;;;;;;;4.09;79.76;99517.50;5024722;28;20077;-65
2021/12/04 10:39:20;;;;;;;21.33;13.57;;;;;;;4.42;78.98;99515.97;5030861;28;20133;-65
2021/12/04 10:41:48;;;;;;;22.88;11.63;;;;;;;4.37;78.05;99508.38;5030413;28;20045;-65
2021/12/04 10:44:18;;;;;;;22.73;13.70;;;;;;;4.54;78.66;99502.44;5030598;28;20103;-65
2021/12/04 10:46:59;;;;;;;28.10;14.57;;;;;;;5.27;76.84;99486.72;5031414;28;20176;-65
2021/12/04 10:49:46;;;;;;;21.85;12.48;;;;;;;5.26;75.92;99486.78;5030117;28;20055;-65
2021/12/04 10:52:29;;;;;;;18.52;11.05;;;;;;;5.45;75.14;99481.53;5026703;28;20141;-65
2021/12/04 10:55:13;;;;;;;18.67;11.45;;;;;;;5.41;74.58;99483.44;5025766;28;20053;-65
2021/12/04 11:00:37;;;;;;;19.30;11.77;;;;;;;5.37;74.65;99487.09;5018380;28;20119;-65
2021/12/04 11:03:17;;;;;;;15.13;10.55;;;;;;;4.81;76.06;99500.28;5031473;28;20476;-64
2021/12/04 11:06:27;;;;;;;15.00;9.93;;;;;;;4.67;76.63;99474.13;5011562;28;20041;-64
2021/12/04 11:28:44;;;;;;;21.35;12.95;;;;;;;4.15;78.19;99426.41;5003756;28;20096;-65
2021/12/04 11:36:58;;;;;;;20.88;12.23;;;;;;;4.28;78.72;99448.31;5029427;28;20053;-65
2021/12/04 11:42:17;;;;;;;21.27;11.93;;;;;;;3.91;79.15;99441.38;4990960;28;20137;-65
2021/12/04 11:44:49;;;;;;;24.02;13.25;;;;;;;4.08;79.23;99443.19;4998086;28;20129;-65
2021/12/04 11:47:17;;;;;;;23.92;13.10;;;;;;;4.33;78.52;99439.38;5010784;28;20054;-65
2021/12/04 11:49:44;;;;;;;18.55;12.55;;;;;;;4.17;78.58;99453.16;5009181;28;20553;-64
2021/12/04 11:52:14;;;;;;;21.25;13.43;;;;;;;3.71;80.12;99451.78;5009775;28;20458;-64
2021/12/04 11:54:47;;;;;;;24.83;13.87;;;;;;;3.69;80.54;99444.09;5008910;28;20052;-65
2021/12/04 11:57:16;;;;;;;19.90;12.32;;;;;;;3.53;81.05;99448.25;5009512;28;20347;-64
2021/12/04 11:59:45;;;;;;;21.52;12.55;;;;;;;3.73;80.15;99435.22;5009731;28;20493;-64
2021/12/04 12:02:19;;;;;;;32.05;16.17;;;;;;;3.71;79.54;99426.69;5010440;28;20240;-64
2021/12/04 12:04:49;;;;;;;29.55;16.85;;;;;;;3.84;78.85;99427.81;5009961;28;20431;-65
2021/12/04 12:07:18;;;;;;;27.85;14.70;;;;;;;3.88;79.19;99419.00;5010214;28;20053;-64
2021/12/04 12:09:46;;;;;;;27.48;15.13;;;;;;;4.21;77.89;99413.19;5004835;28;20038;-65
2021/12/04 12:12:15;;;;;;;23.33;14.05;;;;;;;4.03;77.83;99411.44;5004971;28;20057;-64
2021/12/04 12:14:47;;;;;;;27.80;15.48;;;;;;;4.12;78.01;99411.00;5008866;28;20050;-64
2021/12/04 12:17:15;;;;;;;23.10;13.45;;;;;;;4.50;77.85;99404.84;5007146;28;20054;-64
2021/12/04 12:19:51;;;;;;;22.77;13.07;;;;;;;4.78;75.97;99407.78;5008203;28;20457;-64
2021/12/04 12:22:34;;;;;;;21.98;13.57;;;;;;;4.68;76.83;99409.16;5009051;28;20104;-65
2021/12/04 12:25:18;;;;;;;29.30;16.15;;;;;;;4.56;77.63;99411.50;5009481;28;20108;-65
2021/12/04 12:27:54;;;;;;;27.38;14.32;;;;;;;4.46;78.20;99410.25;5001408;28;20743;-65
2021/12/04 12:33:16;;;;;;;26.65;13.77;;;;;;;4.34;78.35;99409.94;4964453;28;20058;-64
2021/12/04 12:36:03;;;;;;;19.80;12.70;;;;;;;4.51;77.88;99418.69;5008529;28;20048;-65
2021/12/04 12:38:41;;;;;;;25.95;13.93;;;;;;;4.93;76.45;99413.13;4990175;28;20062;-65
2021/12/04 12:41:10;;;;;;;29.10;14.98;;;;;;;4.95;75.74;99399.16;4997748;28;20103;-65
2021/12/04 12:43:45;;;;;;;22.85;14.05;;;;;;;4.74;76.20;99402.81;5023980;28;20106;-65
2021/12/04 12:46:12;;;;;;;24.83;14.45;;;;;;;5.27;75.19;99384.53;5011706;28;20326;-65
2021/12/04 12:48:48;;;;;;;25.38;14.98;;;;;;;5.65;74.13;99378.19;5006870;28;20181;-65
2021/12/04 12:51:22;;;;;;;23.23;14.40;;;;;;;5.95;72.58;99383.50;5026090;28;20088;-65
2021/12/04 12:53:49;;;;;;;26.67;15.18;;;;;;;6.20;70.94;99368.25;5028522;28;20324;-65
2021/12/04 12:56:17;;;;;;;29.05;15.95;;;;;;;5.95;72.29;99373.09;5029989;28;20095;-65
2021/12/04 12:58:49;;;;;;;29.90;14.68;;;;;;;5.53;73.44;99380.56;5027945;28;20042;-65
2021/12/04 13:12:41;;;;;;;21.20;13.32;;;;;;;4.84;75.90;99363.31;5029086;28;20056;-65
2021/12/04 13:15:09;;;;;;;26.95;13.93;;;;;;;4.91;75.90;99363.88;5021550;28;20064;-64
2021/12/04 13:17:37;;;;;;;21.58;12.38;;;;;;;5.32;75.07;99362.56;5028943;28;20065;-64
2021/12/04 13:20:04;;;;;;;25.95;14.18;;;;;;;5.14;75.41;99347.09;5027945;28;20050;-64
2021/12/04 13:22:33;;;;;;;20.90;12.82;;;;;;;5.15;75.97;99351.38;5028775;28;20053;-64
2021/12/04 13:25:03;;;;;;;24.80;12.73;;;;;;;5.49;73.93;99343.50;5027844;28;20513;-64
2021/12/04 13:29:57;;;;;;;22.85;13.00;;;;;;;5.17;74.38;99349.56;5028285;28;20046;-64
2021/12/04 13:32:29;;;;;;;21.75;12.40;;;;;;;4.95;75.53;99339.44;5028502;28;20238;-64
2021/12/04 13:34:55;;;;;;;20.48;13.80;;;;;;;4.99;75.30;99332.31;5027712;28;20053;-64
2021/12/04 13:37:26;;;;;;;23.83;12.88;;;;;;;4.95;75.43;99323.84;5028633;28;20125;-65
2021/12/04 13:39:57;;;;;;;24.88;14.10;;;;;;;4.45;77.22;99325.53;5028587;28;20041;-65
2021/12/04 13:42:24;;;;;;;33.53;16.23;;;;;;;4.77;76.60;99317.81;5028422;28;20175;-64
2021/12/04 13:44:51;;;;;;;34.83;19.25;;;;;;;4.96;75.44;99316.88;5028693;28;20045;-64
2021/12/04 13:47:17;;;;;;;31.45;16.58;;;;;;;4.44;77.23;99316.88;5030610;28;20049;-64
2021/12/04 13:49:54;;;;;;;48.72;28.20;;;;;;;4.28;77.69;99319.41;5031891;28;20099;-65
2021/12/04 13:52:23;;;;;;;28.15;16.20;;;;;;;4.46;77.10;99324.63;5031820;28;20596;-65
2021/12/04 13:54:54;;;;;;;27.60;17.45;;;;;;;4.55;77.48;99339.72;5031935;28;20116;-65
2021/12/04 13:57:22;;;;;;;26.80;13.75;;;;;;;4.71;76.97;99327.66;5032333;28;20560;-65
2021/12/04 13:59:49;;;;;;;24.85;15.25;;;;;;;4.85;76.06;99323.44;5030319;28;20184;-65
2021/12/04 14:02:20;;;;;;;25.90;13.68;;;;;;;4.25;77.42;99321.31;5032416;28;20045;-65